sensor_id;sensor_type;location;lat;lon;timestamp;temperature;humidity
16838;DHT22;19510;54.486;9.046;2024-01-11T00:00:46;1.60;99.90
16838;DHT22;19510;54.486;9.046;2024-01-11T00:03:12;1.50;99.90
16838;DHT22;19510;54.486;9.046;2024-01-11T00:05:40;1.50;99.90
16838;DHT22;19510;54.486;9.046;2024-01-11T00:08:09;1.50;99.90
16838;DHT22;19510;54.486;9.046;2024-01-11T00:10:36;1.40;99.90
16838;DHT22;19510;54.486;9.046;2024-01-11T00:13:03;1.40;99.90
16838;DHT22;19510;54.486;9.046;2024-01-11T00:15:31;1.40;99.90
16838;DHT22;19510;54.486;9.046;2024-01-11T00:17:57;1.40;99.90
16838;DHT22;19510;54.486;9.046;2024-01-11T00:20:22;1.50;99.90
16838;DHT22;19510;54.486;9.046;2024-01-11T00:22:50;1.40;99.90
16838;DHT22;19510;54.486;9.046;2024-01-11T00:25:16;1.40;99.90
16838;DHT22;19510;54.486;9.046;2024-01-11T00:27:41;1.40;99.90
16838;DHT22;19510;54.486;9.046;2024-01-11T00:30:07;1.40;99.90
16838;DHT22;19510;54.486;9.046;2024-01-11T00:32:33;1.40;99.90
16838;DHT22;19510;54.486;9.046;2024-01-11T00:34:59;1.30;99.90
16838;DHT22;19510;54.486;9.046;2024-01-11T00:37:24;1.40;99.90
16838;DHT22;19510;54.486;9.046;2024-01-11T00:39:50;1.40;99.90
16838;DHT22;19510;54.486;9.046;2024-01-11T00:42:16;1.40;99.90
16838;DHT22;19510;54.486;9.046;2024-01-11T00:44:41;1.30;99.90
16838;DHT22;19510;54.486;9.046;2024-01-11T00:47:07;1.40;99.90
16838;DHT22;19510;54.486;9.046;2024-01-11T00:49:33;1.40;99.90
16838;DHT22;19510;54.486;9.046;2024-01-11T00:51:58;1.50;99.90
16838;DHT22;19510;54.486;9.046;2024-01-11T00:54:26;1.30;99.90
16838;DHT22;19510;54.486;9.046;2024-01-11T00:56:54;1.30;99.90
16838;DHT22;19510;54.486;9.046;2024-01-11T00:59:22;1.20;99.90
16838;DHT22;19510;54.486;9.046;2024-01-11T01:01:48;1.20;99.90
16838;DHT22;19510;54.486;9.046;2024-01-11T01:04:14;1.20;99.90
16838;DHT22;19510;54.486;9.046;2024-01-11T01:06:41;1.30;99.90
16838;DHT22;19510;54.486;9.046;2024-01-11T01:09:07;1.40;99.90
16838;DHT22;19510;54.486;9.046;2024-01-11T01:11:32;1.40;99.90
16838;DHT22;19510;54.486;9.046;2024-01-11T01:13:58;1.40;99.90
16838;DHT22;19510;54.486;9.046;2024-01-11T01:16:23;1.40;99.90
16838;DHT22;19510;54.486;9.046;2024-01-11T01:18:49;1.40;99.90
16838;DHT22;19510;54.486;9.046;2024-01-11T01:21:15;1.30;99.90
16838;DHT22;19510;54.486;9.046;2024-01-11T01:23:40;1.20;99.90
16838;DHT22;19510;54.486;9.046;2024-01-11T01:26:06;1.20;99.90
16838;DHT22;19510;54.486;9.046;2024-01-11T01:28:37;1.30;99.90
16838;DHT22;19510;54.486;9.046;2024-01-11T01:31:02;1.20;99.90
16838;DHT22;19510;54.486;9.046;2024-01-11T01:33:28;1.20;99.90
16838;DHT22;19510;54.486;9.046;2024-01-11T01:35:53;1.30;99.90
16838;DHT22;19510;54.486;9.046;2024-01-11T01:38:21;1.10;99.90
16838;DHT22;19510;54.486;9.046;2024-01-11T01:40:47;1.30;99.90
16838;DHT22;19510;54.486;9.046;2024-01-11T01:43:13;1.30;99.90
16838;DHT22;19510;54.486;9.046;2024-01-11T01:45:40;1.20;99.90
16838;DHT22;19510;54.486;9.046;2024-01-11T01:48:08;1.30;99.90
16838;DHT22;19510;54.486;9.046;2024-01-11T01:50:34;1.30;99.90
16838;DHT22;19510;54.486;9.046;2024-01-11T01:53:00;1.30;99.90
16838;DHT22;19510;54.486;9.046;2024-01-11T01:55:28;1.30;99.90
16838;DHT22;19510;54.486;9.046;2024-01-11T01:57:54;1.30;99.90
16838;DHT22;19510;54.486;9.046;2024-01-11T02:00:23;1.30;99.90
16838;DHT22;19510;54.486;9.046;2024-01-11T02:02:50;1.30;99.90
16838;DHT22;19510;54.486;9.046;2024-01-11T02:05:18;1.30;99.90
16838;DHT22;19510;54.486;9.046;2024-01-11T02:07:44;1.20;99.90
16838;DHT22;19510;54.486;9.046;2024-01-11T02:10:12;1.20;99.90
16838;DHT22;19510;54.486;9.046;2024-01-11T02:12:41;1.10;99.90
16838;DHT22;19510;54.486;9.046;2024-01-11T02:15:07;1.10;99.90
16838;DHT22;19510;54.486;9.046;2024-01-11T02:17:33;1.10;99.90
16838;DHT22;19510;54.486;9.046;2024-01-11T02:19:58;1.00;99.90
16838;DHT22;19510;54.486;9.046;2024-01-11T02:22:31;1.10;99.90
16838;DHT22;19510;54.486;9.046;2024-01-11T02:24:57;1.10;99.90
16838;DHT22;19510;54.486;9.046;2024-01-11T02:27:23;1.10;99.90
16838;DHT22;19510;54.486;9.046;2024-01-11T02:29:49;1.10;99.90
16838;DHT22;19510;54.486;9.046;2024-01-11T02:32:15;1.10;99.90
16838;DHT22;19510;54.486;9.046;2024-01-11T02:34:45;1.20;99.90
16838;DHT22;19510;54.486;9.046;2024-01-11T02:37:11;1.20;99.90
16838;DHT22;19510;54.486;9.046;2024-01-11T02:39:40;1.30;99.90
16838;DHT22;19510;54.486;9.046;2024-01-11T02:42:06;1.30;99.90
16838;DHT22;19510;54.486;9.046;2024-01-11T02:44:32;1.20;99.90
16838;DHT22;19510;54.486;9.046;2024-01-11T02:46:59;1.20;99.90
16838;DHT22;19510;54.486;9.046;2024-01-11T02:49:27;1.40;99.90
16838;DHT22;19510;54.486;9.046;2024-01-11T02:51:53;1.30;99.90
16838;DHT22;19510;54.486;9.046;2024-01-11T02:54:18;1.30;99.90
16838;DHT22;19510;54.486;9.046;2024-01-11T02:56:44;1.40;99.90
16838;DHT22;19510;54.486;9.046;2024-01-11T02:59:10;1.30;99.90
16838;DHT22;19510;54.486;9.046;2024-01-11T03:01:38;1.40;99.90
16838;DHT22;19510;54.486;9.046;2024-01-11T03:04:04;1.50;99.90
16838;DHT22;19510;54.486;9.046;2024-01-11T03:06:29;1.40;99.90
16838;DHT22;19510;54.486;9.046;2024-01-11T03:08:55;1.40;99.90
16838;DHT22;19510;54.486;9.046;2024-01-11T03:11:21;1.50;99.90
16838;DHT22;19510;54.486;9.046;2024-01-11T03:13:46;1.50;99.90
16838;DHT22;19510;54.486;9.046;2024-01-11T03:16:12;1.50;99.90
16838;DHT22;19510;54.486;9.046;2024-01-11T03:18:38;1.60;99.90
16838;DHT22;19510;54.486;9.046;2024-01-11T03:21:04;1.60;99.90
16838;DHT22;19510;54.486;9.046;2024-01-11T03:23:32;1.50;99.90
16838;DHT22;19510;54.486;9.046;2024-01-11T03:25:58;1.60;99.90
16838;DHT22;19510;54.486;9.046;2024-01-11T03:28:23;1.60;99.90
16838;DHT22;19510;54.486;9.046;2024-01-11T03:30:49;1.70;99.90
16838;DHT22;19510;54.486;9.046;2024-01-11T03:33:14;1.70;99.90
16838;DHT22;19510;54.486;9.046;2024-01-11T03:35:40;1.70;99.90
16838;DHT22;19510;54.486;9.046;2024-01-11T03:38:08;1.70;99.90
16838;DHT22;19510;54.486;9.046;2024-01-11T03:40:36;1.70;99.90
16838;DHT22;19510;54.486;9.046;2024-01-11T03:43:02;1.50;99.90
16838;DHT22;19510;54.486;9.046;2024-01-11T03:45:28;1.50;99.90
16838;DHT22;19510;54.486;9.046;2024-01-11T03:47:53;1.60;99.90
16838;DHT22;19510;54.486;9.046;2024-01-11T03:50:19;1.60;99.90
16838;DHT22;19510;54.486;9.046;2024-01-11T03:52:45;1.50;99.90
16838;DHT22;19510;54.486;9.046;2024-01-11T03:55:10;1.30;99.90
16838;DHT22;19510;54.486;9.046;2024-01-11T03:57:36;1.20;99.90
16838;DHT22;19510;54.486;9.046;2024-01-11T04:00:02;1.10;99.90
16838;DHT22;19510;54.486;9.046;2024-01-11T04:02:27;1.20;99.90
16838;DHT22;19510;54.486;9.046;2024-01-11T04:04:53;1.10;99.90
16838;DHT22;19510;54.486;9.046;2024-01-11T04:07:19;1.20;99.90
16838;DHT22;19510;54.486;9.046;2024-01-11T04:09:45;1.00;99.90
16838;DHT22;19510;54.486;9.046;2024-01-11T04:12:10;1.00;99.90
16838;DHT22;19510;54.486;9.046;2024-01-11T04:14:39;1.00;99.90
16838;DHT22;19510;54.486;9.046;2024-01-11T04:17:05;1.10;99.90
16838;DHT22;19510;54.486;9.046;2024-01-11T04:19:33;1.10;99.90
16838;DHT22;19510;54.486;9.046;2024-01-11T04:21:59;1.00;99.90
16838;DHT22;19510;54.486;9.046;2024-01-11T04:24:24;1.10;99.90
16838;DHT22;19510;54.486;9.046;2024-01-11T04:26:50;1.10;99.90
16838;DHT22;19510;54.486;9.046;2024-01-11T04:29:16;1.10;99.90
16838;DHT22;19510;54.486;9.046;2024-01-11T04:31:41;1.10;99.90
16838;DHT22;19510;54.486;9.046;2024-01-11T04:34:07;1.20;99.90
16838;DHT22;19510;54.486;9.046;2024-01-11T04:36:33;1.10;99.90
16838;DHT22;19510;54.486;9.046;2024-01-11T04:38:58;1.20;99.90
16838;DHT22;19510;54.486;9.046;2024-01-11T04:41:24;1.10;99.90
16838;DHT22;19510;54.486;9.046;2024-01-11T04:43:49;1.10;99.90
16838;DHT22;19510;54.486;9.046;2024-01-11T04:46:20;1.00;99.90
16838;DHT22;19510;54.486;9.046;2024-01-11T04:48:46;1.00;99.90
16838;DHT22;19510;54.486;9.046;2024-01-11T04:51:13;1.00;99.90
16838;DHT22;19510;54.486;9.046;2024-01-11T04:53:39;0.90;99.90
16838;DHT22;19510;54.486;9.046;2024-01-11T04:56:09;0.90;99.90
16838;DHT22;19510;54.486;9.046;2024-01-11T04:58:36;0.90;99.90
16838;DHT22;19510;54.486;9.046;2024-01-11T05:01:05;1.00;99.90
16838;DHT22;19510;54.486;9.046;2024-01-11T05:03:32;1.10;99.90
16838;DHT22;19510;54.486;9.046;2024-01-11T05:05:58;1.20;99.90
16838;DHT22;19510;54.486;9.046;2024-01-11T05:08:25;1.20;99.90
16838;DHT22;19510;54.486;9.046;2024-01-11T05:10:51;1.20;99.90
16838;DHT22;19510;54.486;9.046;2024-01-11T05:13:22;1.30;99.90
16838;DHT22;19510;54.486;9.046;2024-01-11T05:15:48;1.30;99.90
16838;DHT22;19510;54.486;9.046;2024-01-11T05:18:14;1.30;99.90
16838;DHT22;19510;54.486;9.046;2024-01-11T05:20:40;1.40;99.90
16838;DHT22;19510;54.486;9.046;2024-01-11T05:23:06;1.30;99.90
16838;DHT22;19510;54.486;9.046;2024-01-11T05:25:32;1.30;99.90
16838;DHT22;19510;54.486;9.046;2024-01-11T05:28:01;1.40;99.90
16838;DHT22;19510;54.486;9.046;2024-01-11T05:30:27;1.40;99.90
16838;DHT22;19510;54.486;9.046;2024-01-11T05:32:53;1.30;99.90
16838;DHT22;19510;54.486;9.046;2024-01-11T05:35:19;1.50;99.90
16838;DHT22;19510;54.486;9.046;2024-01-11T05:37:45;1.50;99.90
16838;DHT22;19510;54.486;9.046;2024-01-11T05:40:11;1.50;99.90
16838;DHT22;19510;54.486;9.046;2024-01-11T05:42:36;1.40;99.90
16838;DHT22;19510;54.486;9.046;2024-01-11T05:45:04;1.50;99.90
16838;DHT22;19510;54.486;9.046;2024-01-11T05:47:33;1.50;99.90
16838;DHT22;19510;54.486;9.046;2024-01-11T05:49:58;1.50;99.90
16838;DHT22;19510;54.486;9.046;2024-01-11T05:52:26;1.40;99.90
16838;DHT22;19510;54.486;9.046;2024-01-11T05:54:54;1.50;99.90
16838;DHT22;19510;54.486;9.046;2024-01-11T05:57:20;1.60;99.90
16838;DHT22;19510;54.486;9.046;2024-01-11T05:59:47;1.70;99.90
16838;DHT22;19510;54.486;9.046;2024-01-11T06:02:15;1.60;99.90
16838;DHT22;19510;54.486;9.046;2024-01-11T06:04:41;1.60;99.90
16838;DHT22;19510;54.486;9.046;2024-01-11T06:07:09;1.50;99.90
16838;DHT22;19510;54.486;9.046;2024-01-11T06:09:35;1.70;99.90
16838;DHT22;19510;54.486;9.046;2024-01-11T06:12:01;1.80;99.90
16838;DHT22;19510;54.486;9.046;2024-01-11T06:14:29;1.80;99.90
16838;DHT22;19510;54.486;9.046;2024-01-11T06:16:57;1.80;99.90
16838;DHT22;19510;54.486;9.046;2024-01-11T06:19:23;1.80;99.90
16838;DHT22;19510;54.486;9.046;2024-01-11T06:21:51;1.80;99.90
16838;DHT22;19510;54.486;9.046;2024-01-11T06:24:16;1.80;99.90
16838;DHT22;19510;54.486;9.046;2024-01-11T06:26:49;1.80;99.90
16838;DHT22;19510;54.486;9.046;2024-01-11T06:29:17;1.80;99.90
16838;DHT22;19510;54.486;9.046;2024-01-11T06:31:45;2.00;99.90
16838;DHT22;19510;54.486;9.046;2024-01-11T06:34:10;1.90;99.90
16838;DHT22;19510;54.486;9.046;2024-01-11T06:36:38;2.00;99.90
16838;DHT22;19510;54.486;9.046;2024-01-11T06:39:06;2.00;99.90
16838;DHT22;19510;54.486;9.046;2024-01-11T06:41:32;2.00;99.90
16838;DHT22;19510;54.486;9.046;2024-01-11T06:43:57;2.10;99.90
16838;DHT22;19510;54.486;9.046;2024-01-11T06:46:25;2.10;99.90
16838;DHT22;19510;54.486;9.046;2024-01-11T06:48:51;2.20;99.90
16838;DHT22;19510;54.486;9.046;2024-01-11T06:51:20;2.20;99.90
16838;DHT22;19510;54.486;9.046;2024-01-11T06:53:45;2.30;99.90
16838;DHT22;19510;54.486;9.046;2024-01-11T06:56:19;2.30;99.90
16838;DHT22;19510;54.486;9.046;2024-01-11T06:58:45;2.40;99.90
16838;DHT22;19510;54.486;9.046;2024-01-11T07:01:11;2.30;99.90
16838;DHT22;19510;54.486;9.046;2024-01-11T07:03:38;2.40;99.90
16838;DHT22;19510;54.486;9.046;2024-01-11T07:06:04;2.40;99.90
16838;DHT22;19510;54.486;9.046;2024-01-11T07:08:30;2.40;99.90
16838;DHT22;19510;54.486;9.046;2024-01-11T07:11:01;2.50;99.90
16838;DHT22;19510;54.486;9.046;2024-01-11T07:13:32;2.40;99.90
16838;DHT22;19510;54.486;9.046;2024-01-11T07:16:01;2.50;99.90
16838;DHT22;19510;54.486;9.046;2024-01-11T07:18:28;2.50;99.90
16838;DHT22;19510;54.486;9.046;2024-01-11T07:20:56;2.50;99.90
16838;DHT22;19510;54.486;9.046;2024-01-11T07:23:24;2.50;99.90
16838;DHT22;19510;54.486;9.046;2024-01-11T07:25:50;2.70;99.90
16838;DHT22;19510;54.486;9.046;2024-01-11T07:28:15;2.60;99.90
16838;DHT22;19510;54.486;9.046;2024-01-11T07:30:42;2.70;99.90
16838;DHT22;19510;54.486;9.046;2024-01-11T07:33:11;2.70;99.90
16838;DHT22;19510;54.486;9.046;2024-01-11T07:35:36;2.80;99.90
16838;DHT22;19510;54.486;9.046;2024-01-11T07:38:05;2.80;99.90
16838;DHT22;19510;54.486;9.046;2024-01-11T07:40:35;2.70;99.90
16838;DHT22;19510;54.486;9.046;2024-01-11T07:43:00;2.90;99.90
16838;DHT22;19510;54.486;9.046;2024-01-11T07:45:26;2.90;99.90
16838;DHT22;19510;54.486;9.046;2024-01-11T07:47:52;2.90;99.90
16838;DHT22;19510;54.486;9.046;2024-01-11T07:50:17;3.00;99.90
16838;DHT22;19510;54.486;9.046;2024-01-11T07:52:44;3.00;99.90
16838;DHT22;19510;54.486;9.046;2024-01-11T07:55:14;3.00;99.90
16838;DHT22;19510;54.486;9.046;2024-01-11T07:57:40;3.10;99.90
16838;DHT22;19510;54.486;9.046;2024-01-11T08:00:06;3.10;99.90
16838;DHT22;19510;54.486;9.046;2024-01-11T08:02:35;3.10;99.90
16838;DHT22;19510;54.486;9.046;2024-01-11T08:05:03;3.10;99.90
16838;DHT22;19510;54.486;9.046;2024-01-11T08:07:29;3.20;99.90
16838;DHT22;19510;54.486;9.046;2024-01-11T08:09:55;3.20;99.90
16838;DHT22;19510;54.486;9.046;2024-01-11T08:12:21;3.30;99.90
16838;DHT22;19510;54.486;9.046;2024-01-11T08:14:47;3.30;99.90
16838;DHT22;19510;54.486;9.046;2024-01-11T08:17:14;3.30;99.90
16838;DHT22;19510;54.486;9.046;2024-01-11T08:19:40;3.30;99.90
16838;DHT22;19510;54.486;9.046;2024-01-11T08:22:09;3.40;99.90
16838;DHT22;19510;54.486;9.046;2024-01-11T08:24:35;3.30;99.90
16838;DHT22;19510;54.486;9.046;2024-01-11T08:27:04;3.30;99.90
16838;DHT22;19510;54.486;9.046;2024-01-11T08:29:30;3.40;99.90
16838;DHT22;19510;54.486;9.046;2024-01-11T08:31:55;3.40;99.90
16838;DHT22;19510;54.486;9.046;2024-01-11T08:34:22;3.40;99.90
16838;DHT22;19510;54.486;9.046;2024-01-11T08:36:47;3.40;99.90
16838;DHT22;19510;54.486;9.046;2024-01-11T08:39:13;3.40;99.90
16838;DHT22;19510;54.486;9.046;2024-01-11T08:41:40;3.40;99.90
16838;DHT22;19510;54.486;9.046;2024-01-11T08:44:06;3.40;99.90
16838;DHT22;19510;54.486;9.046;2024-01-11T08:46:32;3.40;99.90
16838;DHT22;19510;54.486;9.046;2024-01-11T08:49:01;3.40;99.90
16838;DHT22;19510;54.486;9.046;2024-01-11T08:51:31;3.40;99.90
16838;DHT22;19510;54.486;9.046;2024-01-11T08:54:00;3.40;99.90
16838;DHT22;19510;54.486;9.046;2024-01-11T08:56:25;3.40;99.90
16838;DHT22;19510;54.486;9.046;2024-01-11T08:58:51;3.40;99.90
16838;DHT22;19510;54.486;9.046;2024-01-11T09:01:17;3.40;99.90
16838;DHT22;19510;54.486;9.046;2024-01-11T09:03:46;3.40;99.90
16838;DHT22;19510;54.486;9.046;2024-01-11T09:06:13;3.40;99.90
16838;DHT22;19510;54.486;9.046;2024-01-11T09:08:41;3.30;99.90
16838;DHT22;19510;54.486;9.046;2024-01-11T09:11:07;3.40;99.90
16838;DHT22;19510;54.486;9.046;2024-01-11T09:13:36;3.40;99.90
16838;DHT22;19510;54.486;9.046;2024-01-11T09:16:01;3.40;99.90
16838;DHT22;19510;54.486;9.046;2024-01-11T09:18:27;3.40;99.90
16838;DHT22;19510;54.486;9.046;2024-01-11T09:20:53;3.40;99.90
16838;DHT22;19510;54.486;9.046;2024-01-11T09:23:18;3.40;99.90
16838;DHT22;19510;54.486;9.046;2024-01-11T09:25:44;3.30;99.90
16838;DHT22;19510;54.486;9.046;2024-01-11T09:28:10;3.30;99.90
16838;DHT22;19510;54.486;9.046;2024-01-11T09:30:36;3.30;99.90
16838;DHT22;19510;54.486;9.046;2024-01-11T09:33:02;3.30;99.90
16838;DHT22;19510;54.486;9.046;2024-01-11T09:35:27;3.40;99.90
16838;DHT22;19510;54.486;9.046;2024-01-11T09:37:53;3.40;99.90
16838;DHT22;19510;54.486;9.046;2024-01-11T09:40:19;3.40;99.90
16838;DHT22;19510;54.486;9.046;2024-01-11T09:42:45;3.40;99.90
16838;DHT22;19510;54.486;9.046;2024-01-11T09:45:14;3.40;99.90
16838;DHT22;19510;54.486;9.046;2024-01-11T09:47:46;3.40;99.90
16838;DHT22;19510;54.486;9.046;2024-01-11T09:50:14;3.50;99.90
16838;DHT22;19510;54.486;9.046;2024-01-11T09:52:46;3.50;99.90
16838;DHT22;19510;54.486;9.046;2024-01-11T09:55:15;3.50;99.90
16838;DHT22;19510;54.486;9.046;2024-01-11T09:57:44;3.50;99.90
16838;DHT22;19510;54.486;9.046;2024-01-11T10:00:13;3.50;99.90
16838;DHT22;19510;54.486;9.046;2024-01-11T10:02:40;3.50;99.90
16838;DHT22;19510;54.486;9.046;2024-01-11T10:05:08;3.50;99.90
16838;DHT22;19510;54.486;9.046;2024-01-11T10:07:34;3.60;99.90
16838;DHT22;19510;54.486;9.046;2024-01-11T10:10:00;3.60;99.90
16838;DHT22;19510;54.486;9.046;2024-01-11T10:12:28;3.70;99.90
16838;DHT22;19510;54.486;9.046;2024-01-11T10:14:54;3.70;99.90
16838;DHT22;19510;54.486;9.046;2024-01-11T10:17:22;3.70;99.90
16838;DHT22;19510;54.486;9.046;2024-01-11T10:19:48;3.70;99.90
16838;DHT22;19510;54.486;9.046;2024-01-11T10:22:13;3.80;99.90
16838;DHT22;19510;54.486;9.046;2024-01-11T10:24:42;3.90;99.90
16838;DHT22;19510;54.486;9.046;2024-01-11T10:27:11;4.00;99.90
16838;DHT22;19510;54.486;9.046;2024-01-11T10:29:37;4.00;99.90
16838;DHT22;19510;54.486;9.046;2024-01-11T10:32:08;4.00;99.90
16838;DHT22;19510;54.486;9.046;2024-01-11T10:34:35;4.10;99.90
16838;DHT22;19510;54.486;9.046;2024-01-11T10:37:02;4.10;99.90
16838;DHT22;19510;54.486;9.046;2024-01-11T10:39:28;4.10;99.90
16838;DHT22;19510;54.486;9.046;2024-01-11T10:42:05;4.20;99.90
16838;DHT22;19510;54.486;9.046;2024-01-11T10:44:35;4.10;99.90
16838;DHT22;19510;54.486;9.046;2024-01-11T10:47:03;4.20;99.90
16838;DHT22;19510;54.486;9.046;2024-01-11T10:49:32;4.20;99.90
16838;DHT22;19510;54.486;9.046;2024-01-11T10:52:00;4.20;99.90
16838;DHT22;19510;54.486;9.046;2024-01-11T10:54:30;4.20;99.90
16838;DHT22;19510;54.486;9.046;2024-01-11T10:56:58;4.30;99.90
16838;DHT22;19510;54.486;9.046;2024-01-11T10:59:29;4.30;99.90
16838;DHT22;19510;54.486;9.046;2024-01-11T11:01:58;4.30;99.90
16838;DHT22;19510;54.486;9.046;2024-01-11T11:04:26;4.30;99.90
16838;DHT22;19510;54.486;9.046;2024-01-11T11:06:55;4.30;99.90
16838;DHT22;19510;54.486;9.046;2024-01-11T11:09:25;4.40;99.90
16838;DHT22;19510;54.486;9.046;2024-01-11T11:11:58;4.40;99.90
16838;DHT22;19510;54.486;9.046;2024-01-11T11:14:24;4.40;99.90
16838;DHT22;19510;54.486;9.046;2024-01-11T11:16:52;4.50;99.90
16838;DHT22;19510;54.486;9.046;2024-01-11T11:19:21;4.50;99.90
16838;DHT22;19510;54.486;9.046;2024-01-11T11:21:48;4.50;99.90
16838;DHT22;19510;54.486;9.046;2024-01-11T11:24:14;4.50;99.90
16838;DHT22;19510;54.486;9.046;2024-01-11T11:26:42;4.50;99.90
16838;DHT22;19510;54.486;9.046;2024-01-11T11:29:08;4.60;99.90
16838;DHT22;19510;54.486;9.046;2024-01-11T11:31:37;4.60;99.90
16838;DHT22;19510;54.486;9.046;2024-01-11T11:34:11;4.60;99.90
16838;DHT22;19510;54.486;9.046;2024-01-11T11:36:36;4.60;99.90
16838;DHT22;19510;54.486;9.046;2024-01-11T11:39:02;4.60;99.90
16838;DHT22;19510;54.486;9.046;2024-01-11T11:41:31;4.60;99.90
16838;DHT22;19510;54.486;9.046;2024-01-11T11:44:04;4.60;99.90
16838;DHT22;19510;54.486;9.046;2024-01-11T11:46:31;4.70;99.90
16838;DHT22;19510;54.486;9.046;2024-01-11T11:48:57;4.70;99.90
16838;DHT22;19510;54.486;9.046;2024-01-11T11:51:24;4.80;99.90
16838;DHT22;19510;54.486;9.046;2024-01-11T11:53:51;4.70;99.90
16838;DHT22;19510;54.486;9.046;2024-01-11T11:56:20;4.80;99.90
16838;DHT22;19510;54.486;9.046;2024-01-11T11:58:49;4.90;99.90
16838;DHT22;19510;54.486;9.046;2024-01-11T12:01:21;4.90;99.90
16838;DHT22;19510;54.486;9.046;2024-01-11T12:03:48;5.00;99.90
16838;DHT22;19510;54.486;9.046;2024-01-11T12:06:20;5.00;99.90
16838;DHT22;19510;54.486;9.046;2024-01-11T12:08:48;5.00;99.90
16838;DHT22;19510;54.486;9.046;2024-01-11T12:11:18;5.10;99.90
16838;DHT22;19510;54.486;9.046;2024-01-11T12:13:45;5.20;99.90
16838;DHT22;19510;54.486;9.046;2024-01-11T12:16:14;5.20;99.90
16838;DHT22;19510;54.486;9.046;2024-01-11T12:18:40;5.20;99.90
16838;DHT22;19510;54.486;9.046;2024-01-11T12:21:10;5.20;99.90
16838;DHT22;19510;54.486;9.046;2024-01-11T12:23:38;5.20;99.90
16838;DHT22;19510;54.486;9.046;2024-01-11T12:26:06;5.20;99.90
16838;DHT22;19510;54.486;9.046;2024-01-11T12:28:33;5.20;99.90
16838;DHT22;19510;54.486;9.046;2024-01-11T12:30:59;5.10;99.90
16838;DHT22;19510;54.486;9.046;2024-01-11T12:33:26;5.20;99.90
16838;DHT22;19510;54.486;9.046;2024-01-11T12:35:52;5.20;99.90
16838;DHT22;19510;54.486;9.046;2024-01-11T12:38:17;5.20;99.90
16838;DHT22;19510;54.486;9.046;2024-01-11T12:40:45;5.20;99.90
16838;DHT22;19510;54.486;9.046;2024-01-11T12:43:12;5.10;99.90
16838;DHT22;19510;54.486;9.046;2024-01-11T12:45:39;5.10;99.90
16838;DHT22;19510;54.486;9.046;2024-01-11T12:48:08;5.00;99.90
16838;DHT22;19510;54.486;9.046;2024-01-11T12:50:34;5.00;99.90
16838;DHT22;19510;54.486;9.046;2024-01-11T12:53:27;5.00;99.90
16838;DHT22;19510;54.486;9.046;2024-01-11T12:56:04;5.00;99.90
16838;DHT22;19510;54.486;9.046;2024-01-11T12:58:39;5.10;99.90
16838;DHT22;19510;54.486;9.046;2024-01-11T13:01:06;5.10;99.90
16838;DHT22;19510;54.486;9.046;2024-01-11T13:03:37;5.10;99.90
16838;DHT22;19510;54.486;9.046;2024-01-11T13:06:05;5.20;99.90
16838;DHT22;19510;54.486;9.046;2024-01-11T13:08:34;5.20;99.90
16838;DHT22;19510;54.486;9.046;2024-01-11T13:11:05;5.30;99.90
16838;DHT22;19510;54.486;9.046;2024-01-11T13:13:35;5.30;99.90
16838;DHT22;19510;54.486;9.046;2024-01-11T13:16:01;5.40;99.90
16838;DHT22;19510;54.486;9.046;2024-01-11T13:18:34;5.50;99.90
16838;DHT22;19510;54.486;9.046;2024-01-11T13:20:59;5.50;99.90
16838;DHT22;19510;54.486;9.046;2024-01-11T13:23:25;5.60;99.90
16838;DHT22;19510;54.486;9.046;2024-01-11T13:25:51;5.60;99.90
16838;DHT22;19510;54.486;9.046;2024-01-11T13:28:17;5.60;99.90
16838;DHT22;19510;54.486;9.046;2024-01-11T13:30:47;5.60;99.90
16838;DHT22;19510;54.486;9.046;2024-01-11T13:33:14;5.70;99.90
16838;DHT22;19510;54.486;9.046;2024-01-11T13:35:43;5.70;99.90
16838;DHT22;19510;54.486;9.046;2024-01-11T13:38:09;5.70;99.90
16838;DHT22;19510;54.486;9.046;2024-01-11T13:40:37;5.70;99.90
16838;DHT22;19510;54.486;9.046;2024-01-11T13:43:05;5.70;99.90
16838;DHT22;19510;54.486;9.046;2024-01-11T13:45:30;5.70;99.90
16838;DHT22;19510;54.486;9.046;2024-01-11T13:47:56;5.70;99.90
16838;DHT22;19510;54.486;9.046;2024-01-11T13:50:23;5.70;99.90
16838;DHT22;19510;54.486;9.046;2024-01-11T13:52:52;5.70;99.90
16838;DHT22;19510;54.486;9.046;2024-01-11T13:55:20;5.80;99.90
16838;DHT22;19510;54.486;9.046;2024-01-11T13:57:47;5.70;99.90
16838;DHT22;19510;54.486;9.046;2024-01-11T14:00:16;5.70;99.90
16838;DHT22;19510;54.486;9.046;2024-01-11T14:02:44;5.80;99.90
16838;DHT22;19510;54.486;9.046;2024-01-11T14:05:11;5.80;99.90
16838;DHT22;19510;54.486;9.046;2024-01-11T14:07:41;5.80;99.90
16838;DHT22;19510;54.486;9.046;2024-01-11T14:10:08;5.90;99.90
16838;DHT22;19510;54.486;9.046;2024-01-11T14:12:37;5.90;99.90
16838;DHT22;19510;54.486;9.046;2024-01-11T14:15:04;6.00;99.90
16838;DHT22;19510;54.486;9.046;2024-01-11T14:17:30;6.10;99.90
16838;DHT22;19510;54.486;9.046;2024-01-11T14:19:56;6.10;99.90
16838;DHT22;19510;54.486;9.046;2024-01-11T14:22:23;6.10;99.90
16838;DHT22;19510;54.486;9.046;2024-01-11T14:24:49;6.00;99.90
16838;DHT22;19510;54.486;9.046;2024-01-11T14:27:17;5.90;99.90
16838;DHT22;19510;54.486;9.046;2024-01-11T14:29:43;5.90;99.90
16838;DHT22;19510;54.486;9.046;2024-01-11T14:32:09;5.90;99.90
16838;DHT22;19510;54.486;9.046;2024-01-11T14:34:36;5.90;99.90
16838;DHT22;19510;54.486;9.046;2024-01-11T14:37:02;5.80;99.90
16838;DHT22;19510;54.486;9.046;2024-01-11T14:39:30;5.70;99.90
16838;DHT22;19510;54.486;9.046;2024-01-11T14:41:55;5.60;99.90
16838;DHT22;19510;54.486;9.046;2024-01-11T14:44:21;5.50;99.90
16838;DHT22;19510;54.486;9.046;2024-01-11T14:46:47;5.50;99.90
16838;DHT22;19510;54.486;9.046;2024-01-11T14:49:15;5.40;99.90
16838;DHT22;19510;54.486;9.046;2024-01-11T14:51:40;5.40;99.90
16838;DHT22;19510;54.486;9.046;2024-01-11T14:54:06;5.30;99.90
16838;DHT22;19510;54.486;9.046;2024-01-11T14:56:32;5.30;99.90
16838;DHT22;19510;54.486;9.046;2024-01-11T14:59:02;5.30;99.90
16838;DHT22;19510;54.486;9.046;2024-01-11T15:01:29;5.20;99.90
16838;DHT22;19510;54.486;9.046;2024-01-11T15:03:56;5.10;99.90
16838;DHT22;19510;54.486;9.046;2024-01-11T15:06:22;5.10;99.90
16838;DHT22;19510;54.486;9.046;2024-01-11T15:08:48;5.00;99.90
16838;DHT22;19510;54.486;9.046;2024-01-11T15:11:13;5.00;99.90
16838;DHT22;19510;54.486;9.046;2024-01-11T15:13:39;5.00;99.90
16838;DHT22;19510;54.486;9.046;2024-01-11T15:16:05;4.90;99.90
16838;DHT22;19510;54.486;9.046;2024-01-11T15:18:32;4.80;99.90
16838;DHT22;19510;54.486;9.046;2024-01-11T15:21:00;4.70;99.90
16838;DHT22;19510;54.486;9.046;2024-01-11T15:23:25;4.70;99.90
16838;DHT22;19510;54.486;9.046;2024-01-11T15:25:51;4.60;99.90
16838;DHT22;19510;54.486;9.046;2024-01-11T15:28:17;4.60;99.90
16838;DHT22;19510;54.486;9.046;2024-01-11T15:30:43;4.50;99.90
16838;DHT22;19510;54.486;9.046;2024-01-11T15:33:09;4.40;99.90
16838;DHT22;19510;54.486;9.046;2024-01-11T15:35:35;4.40;99.90
16838;DHT22;19510;54.486;9.046;2024-01-11T15:38:00;4.30;99.90
16838;DHT22;19510;54.486;9.046;2024-01-11T15:40:26;4.20;99.90
16838;DHT22;19510;54.486;9.046;2024-01-11T15:42:52;4.20;99.90